Time;durP1;ratioP1;P1;durP2;ratioP2;P2;SDS_P1;SDS_P2;PMS_P1;PMS_P2;Temp;Humidity;BMP_temperature;BMP_pressure;BME280_temperature;BME280_humidity;BME280_pressure;Samples;Min_cycle;Max_cycle;Signal;HPM_P1;HPM_P2
2023/09/16 00:00:32;;;;;;;2.08;1.67;;;;;;;22.77;49.46;101474.41;5115133;28;20073;-74
2023/09/16 00:02:58;;;;;;;2.65;1.42;;;;;;;22.69;49.52;101464.47;5108186;28;20036;-74
2023/09/16 00:05:23;;;;;;;2.55;1.60;;;;;;;22.67;49.85;101457.53;5116568;28;20028;-74
2023/09/16 00:07:48;;;;;;;3.03;1.60;;;;;;;22.74;49.56;101466.63;5113858;28;20108;-74
2023/09/16 00:10:14;;;;;;;1.80;1.60;;;;;;;22.66;49.83;101455.84;5121987;28;20032;-74
2023/09/16 00:12:39;;;;;;;2.53;1.73;;;;;;;22.72;49.50;101463.25;5112230;28;20080;-74
2023/09/16 00:15:05;;;;;;;2.30;2.10;;;;;;;22.58;49.63;101445.06;5117674;27;20016;-74
2023/09/16 00:17:30;;;;;;;3.25;2.17;;;;;;;22.70;49.45;101463.44;5100525;28;20042;-74
2023/09/16 00:19:56;;;;;;;1.95;1.50;;;;;;;22.21;49.70;101381.63;5109400;28;20016;-74
2023/09/16 00:22:21;;;;;;;2.08;1.70;;;;;;;22.70;49.57;101462.59;5123658;28;20035;-74
2023/09/16 00:24:46;;;;;;;2.13;1.83;;;;;;;22.46;49.63;101420.22;5117477;28;20038;-75
2023/09/16 00:27:12;;;;;;;2.17;1.98;;;;;;;22.51;49.57;101427.81;5108531;28;20028;-74
2023/09/16 00:29:37;;;;;;;3.10;1.70;;;;;;;22.65;49.45;101449.59;5122033;28;20024;-74
2023/09/16 00:32:06;;;;;;;2.63;1.90;;;;;;;22.53;49.53;101429.34;5123849;28;20147;-74
2023/09/16 00:34:31;;;;;;;2.50;1.70;;;;;;;22.66;49.50;101450.41;5107018;28;20020;-74
2023/09/16 00:36:56;;;;;;;2.55;1.67;;;;;;;22.53;49.61;101426.63;5120678;28;20084;-74
2023/09/16 00:39:23;;;;;;;2.45;1.98;;;;;;;22.63;49.61;101439.94;5113647;28;20016;-74
2023/09/16 00:41:49;;;;;;;2.97;1.90;;;;;;;22.48;49.56;101412.78;5108101;28;20023;-74
2023/09/16 00:44:14;;;;;;;2.80;2.08;;;;;;;22.62;49.41;101432.81;5111553;28;20544;-74
2023/09/16 00:46:39;;;;;;;2.50;1.80;;;;;;;22.62;49.43;101438.25;5106013;28;20024;-74
2023/09/16 00:49:05;;;;;;;2.08;1.55;;;;;;;22.60;49.51;101441.16;5109576;28;20061;-74
2023/09/16 00:51:30;;;;;;;2.38;2.10;;;;;;;22.60;49.33;101434.88;5098327;28;20016;-74
2023/09/16 00:53:56;;;;;;;2.40;1.98;;;;;;;22.21;49.42;101376.19;5103325;28;20020;-74
2023/09/16 00:56:23;;;;;;;2.83;1.90;;;;;;;22.58;49.43;101442.34;5105411;28;20042;-74
2023/09/16 00:58:49;;;;;;;1.75;1.58;;;;;;;22.58;49.20;101448.59;5109951;28;20061;-74
2023/09/16 01:01:14;;;;;;;2.55;1.80;;;;;;;22.44;49.17;101423.13;5106554;28;20063;-74
2023/09/16 01:03:41;;;;;;;2.00;1.80;;;;;;;22.57;49.08;101440.66;5095013;28;20065;-74
2023/09/16 01:06:07;;;;;;;2.40;1.60;;;;;;;22.49;49.15;101429.88;5116477;28;20054;-74
2023/09/16 01:08:34;;;;;;;2.03;1.83;;;;;;;22.55;49.46;101435.41;5110457;28;20052;-74
2023/09/16 01:11:02;;;;;;;2.88;1.80;;;;;;;22.17;49.12;101370.31;5106248;28;20024;-75
2023/09/16 01:13:28;;;;;;;1.55;1.45;;;;;;;22.55;49.27;101429.16;5111724;27;20496;-74
2023/09/16 01:16:02;;;;;;;2.15;1.60;;;;;;;22.35;48.99;101394.41;5123835;27;20024;-74
2023/09/16 01:18:32;;;;;;;2.17;1.70;;;;;;;22.53;49.16;101431.22;5110284;28;20020;-74
2023/09/16 01:20:59;;;;;;;1.83;1.60;;;;;;;22.30;49.11;101393.25;5104087;28;20054;-74
2023/09/16 01:23:24;;;;;;;1.90;1.70;;;;;;;22.41;49.35;101414.50;5110055;28;20035;-74
2023/09/16 01:25:49;;;;;;;2.45;1.80;;;;;;;22.20;49.06;101385.34;5111187;28;20020;-74
2023/09/16 01:28:15;;;;;;;2.17;1.58;;;;;;;22.37;48.95;101408.59;5110529;28;20024;-74
2023/09/16 01:30:44;;;;;;;2.15;1.70;;;;;;;22.49;49.07;101427.16;5111327;28;20024;-74
2023/09/16 01:33:26;;;;;;;2.67;1.88;;;;;;;22.30;49.18;101404.94;5112593;28;20020;-74
2023/09/16 01:35:59;;;;;;;1.70;1.60;;;;;;;22.26;49.14;101391.91;5123766;28;20039;-74
2023/09/16 01:38:26;;;;;;;2.53;1.90;;;;;;;22.44;49.04;101427.72;5116170;28;20012;-74
2023/09/16 01:40:54;;;;;;;2.25;1.73;;;;;;;22.46;49.16;101422.94;5121972;28;20030;-74
2023/09/16 01:43:19;;;;;;;1.83;1.50;;;;;;;22.34;49.25;101416.25;5119617;28;20080;-74
2023/09/16 01:45:45;;;;;;;2.22;1.80;;;;;;;22.30;49.27;101415.78;5116145;28;20443;-74
2023/09/16 01:48:11;;;;;;;3.08;2.13;;;;;;;22.30;49.06;101413.06;5119398;28;20054;-74
2023/09/16 01:50:39;;;;;;;3.00;1.63;;;;;;;22.41;49.13;101428.06;5104014;28;20016;-74
2023/09/16 01:53:07;;;;;;;1.63;1.50;;;;;;;22.38;48.91;101429.25;5116475;28;20411;-74
2023/09/16 01:55:32;;;;;;;1.95;1.67;;;;;;;22.26;48.86;101411.75;5113949;28;20028;-74
2023/09/16 01:57:58;;;;;;;1.80;1.50;;;;;;;22.34;49.04;101419.78;5113191;28;20165;-74
2023/09/16 02:00:23;;;;;;;2.50;1.65;;;;;;;22.39;49.05;101420.13;5116083;28;20024;-74
2023/09/16 02:02:48;;;;;;;1.92;1.58;;;;;;;22.23;49.03;101398.56;5108788;28;20055;-74
2023/09/16 02:05:16;;;;;;;2.53;1.55;;;;;;;22.39;49.03;101424.69;5113716;28;20027;-74
2023/09/16 02:07:42;;;;;;;1.70;1.60;;;;;;;22.38;49.14;101434.66;5114223;28;20427;-74
2023/09/16 02:10:07;;;;;;;1.88;1.70;;;;;;;22.13;48.94;101381.66;5107483;28;20081;-74
2023/09/16 02:12:33;;;;;;;2.08;1.85;;;;;;;22.36;49.20;101423.19;5117129;28;20067;-74
2023/09/16 02:14:58;;;;;;;1.73;1.42;;;;;;;22.13;49.13;101385.25;5115522;28;20034;-74
2023/09/16 02:17:25;;;;;;;2.13;1.80;;;;;;;22.35;48.96;101417.94;5104900;28;20024;-74
2023/09/16 02:19:51;;;;;;;1.60;1.50;;;;;;;22.15;48.90;101394.03;5120773;28;20049;-74
2023/09/16 02:22:16;;;;;;;2.17;1.70;;;;;;;22.33;48.92;101423.53;5111420;28;20061;-74
2023/09/16 02:24:42;;;;;;;1.42;1.20;;;;;;;22.26;48.84;101408.16;5109648;28;20019;-74
2023/09/16 02:27:08;;;;;;;2.22;1.55;;;;;;;22.15;48.84;101391.31;5116885;28;20400;-74
2023/09/16 02:29:34;;;;;;;2.10;1.67;;;;;;;22.31;48.98;101416.63;5113273;28;20035;-74
2023/09/16 02:31:59;;;;;;;2.40;1.65;;;;;;;22.30;49.06;101417.63;5114367;28;20031;-74
2023/09/16 02:34:24;;;;;;;1.60;1.50;;;;;;;22.27;49.06;101413.41;5116612;28;20491;-74
2023/09/16 02:36:50;;;;;;;1.98;1.63;;;;;;;22.29;48.96;101415.94;5120012;28;20024;-75
2023/09/16 02:39:15;;;;;;;1.60;1.45;;;;;;;22.04;48.77;101377.28;5123340;28;20020;-74
2023/09/16 02:41:40;;;;;;;1.95;1.70;;;;;;;22.07;48.92;101387.78;5115502;28;20426;-74
2023/09/16 02:44:07;;;;;;;2.63;1.70;;;;;;;22.21;49.04;101417.66;5107114;28;20024;-74
2023/09/16 02:46:32;;;;;;;1.75;1.40;;;;;;;22.07;48.98;101393.19;5122819;28;20110;-74
2023/09/16 02:48:58;;;;;;;3.58;1.70;;;;;;;22.08;49.00;101401.13;5112360;28;20381;-74
2023/09/16 02:51:23;;;;;;;1.90;1.65;;;;;;;21.95;48.78;101376.50;5110705;28;20027;-74
2023/09/16 02:53:48;;;;;;;1.35;1.25;;;;;;;22.20;48.72;101410.56;5118479;28;20031;-74
2023/09/16 02:56:14;;;;;;;2.75;1.92;;;;;;;22.10;48.80;101401.81;5111285;28;20051;-74
2023/09/16 02:58:39;;;;;;;2.22;1.70;;;;;;;22.11;48.60;101406.19;5108685;28;20034;-74
2023/09/16 03:01:10;;;;;;;2.10;1.58;;;;;;;22.06;48.94;101392.34;5105057;28;20031;-74
2023/09/16 03:03:36;;;;;;;2.13;1.60;;;;;;;22.16;48.80;101405.69;5101716;28;20028;-74
2023/09/16 03:06:02;;;;;;;1.60;1.50;;;;;;;22.20;48.79;101416.00;5108510;28;20115;-74
2023/09/16 03:08:27;;;;;;;2.05;1.60;;;;;;;22.19;48.73;101408.06;5087725;28;20067;-74
2023/09/16 03:10:58;;;;;;;2.22;1.77;;;;;;;21.99;48.90;101374.28;5105419;28;20046;-74
2023/09/16 03:13:23;;;;;;;2.05;1.55;;;;;;;22.18;48.82;101409.09;5109116;28;20030;-74
2023/09/16 03:16:13;;;;;;;2.30;2.05;;;;;;;22.16;48.80;101401.13;5110750;28;20031;-74
2023/09/16 03:18:38;;;;;;;2.25;1.50;;;;;;;22.07;48.56;101380.50;5116273;28;20106;-74
2023/09/16 03:21:03;;;;;;;3.30;2.08;;;;;;;22.07;48.72;101391.31;5109043;28;20492;-74
2023/09/16 03:23:29;;;;;;;2.05;1.50;;;;;;;22.15;48.75;101393.19;5109455;28;20480;-74
2023/09/16 03:25:54;;;;;;;2.58;1.60;;;;;;;22.15;48.58;101404.00;5111799;28;20031;-74
2023/09/16 03:28:19;;;;;;;1.88;1.63;;;;;;;21.99;48.86;101372.41;5126915;28;20048;-74
2023/09/16 03:30:45;;;;;;;2.08;1.90;;;;;;;22.13;48.68;101398.78;5123516;28;20021;-74
2023/09/16 03:33:10;;;;;;;1.95;1.75;;;;;;;21.88;48.53;101353.88;5125627;28;20031;-74
2023/09/16 03:35:36;;;;;;;2.33;1.73;;;;;;;21.92;48.76;101369.59;5116305;27;20028;-74
2023/09/16 03:38:01;;;;;;;2.40;1.88;;;;;;;22.11;48.58;101395.38;5124974;28;20074;-74
2023/09/16 03:40:27;;;;;;;2.22;1.60;;;;;;;21.86;48.71;101355.91;5114217;28;20023;-74
2023/09/16 03:42:53;;;;;;;2.08;1.50;;;;;;;22.09;48.67;101389.28;5117106;28;20023;-74
2023/09/16 03:45:18;;;;;;;1.98;1.50;;;;;;;22.09;48.67;101388.44;5109133;28;20106;-74
2023/09/16 03:47:43;;;;;;;1.80;1.40;;;;;;;22.06;48.74;101377.97;5115467;28;20055;-74
2023/09/16 03:50:09;;;;;;;2.20;1.67;;;;;;;22.07;48.68;101376.94;5119026;28;20487;-74
2023/09/16 03:52:34;;;;;;;1.85;1.50;;;;;;;21.65;48.83;101307.81;5116943;28;20024;-74
2023/09/16 03:54:59;;;;;;;1.75;1.50;;;;;;;22.06;48.75;101373.41;5116945;28;20103;-74
2023/09/16 03:57:25;;;;;;;2.20;1.65;;;;;;;22.04;48.81;101374.59;5118780;28;20027;-74
2023/09/16 03:59:50;;;;;;;1.77;1.48;;;;;;;22.04;48.50;101370.00;5113699;28;20370;-74
2023/09/16 04:02:15;;;;;;;2.15;1.60;;;;;;;22.03;48.49;101373.75;5119384;28;20119;-74
2023/09/16 04:04:40;;;;;;;1.60;1.50;;;;;;;21.95;48.70;101363.78;5118573;28;20028;-74
2023/09/16 04:07:06;;;;;;;1.92;1.42;;;;;;;22.00;48.82;101367.84;5112916;28;20023;-74
2023/09/16 04:09:31;;;;;;;1.85;1.67;;;;;;;21.99;48.53;101369.69;5122418;28;20066;-74
2023/09/16 04:11:56;;;;;;;1.60;1.30;;;;;;;22.00;48.64;101363.25;5117300;28;20104;-74
2023/09/16 04:14:23;;;;;;;1.90;1.35;;;;;;;21.88;48.67;101359.28;5118768;27;20067;-74
2023/09/16 04:16:48;;;;;;;1.90;1.63;;;;;;;21.95;48.42;101366.50;5122474;28;20031;-74
2023/09/16 04:19:13;;;;;;;2.50;1.50;;;;;;;21.77;48.68;101338.03;5117433;27;20020;-74
2023/09/16 04:21:39;;;;;;;2.45;1.90;;;;;;;21.84;48.59;101345.25;5114253;28;20026;-74
2023/09/16 04:24:04;;;;;;;2.40;1.40;;;;;;;21.82;48.50;101349.16;5122860;27;20023;-74
2023/09/16 04:26:29;;;;;;;3.17;1.77;;;;;;;21.91;48.35;101358.91;5120100;28;20016;-74
2023/09/16 04:28:55;;;;;;;2.22;1.60;;;;;;;21.71;48.89;101337.72;5117648;28;20040;-74
2023/09/16 04:31:20;;;;;;;1.77;1.40;;;;;;;21.80;48.44;101345.81;5124957;28;20028;-74
2023/09/16 04:33:45;;;;;;;1.80;1.65;;;;;;;21.94;48.59;101363.97;5109669;28;20393;-74
2023/09/16 04:36:10;;;;;;;1.98;1.60;;;;;;;21.76;48.78;101339.06;5103523;28;20030;-74
2023/09/16 04:38:38;;;;;;;2.05;1.60;;;;;;;21.89;48.38;101364.53;5117731;28;20024;-74
2023/09/16 04:41:05;;;;;;;2.33;1.77;;;;;;;21.86;48.61;101359.44;5110616;28;20092;-74
2023/09/16 04:43:30;;;;;;;2.63;1.55;;;;;;;21.73;48.57;101331.28;5123134;28;20054;-74
2023/09/16 04:45:55;;;;;;;2.08;1.88;;;;;;;21.82;48.38;101341.88;5115238;28;20481;-74
2023/09/16 04:48:22;;;;;;;2.30;1.50;;;;;;;21.73;48.71;101331.28;5109445;28;20024;-74
2023/09/16 04:50:48;;;;;;;1.73;1.50;;;;;;;21.89;48.32;101361.81;5115237;28;20028;-74
2023/09/16 04:53:13;;;;;;;2.58;1.60;;;;;;;21.89;48.84;101367.22;5112148;28;20046;-74
2023/09/16 04:55:41;;;;;;;2.15;1.60;;;;;;;21.88;48.48;101364.72;5110630;28;20109;-74
2023/09/16 04:58:06;;;;;;;2.35;1.48;;;;;;;21.88;48.30;101362.84;5120248;28;20016;-74
2023/09/16 05:00:33;;;;;;;1.85;1.60;;;;;;;21.69;48.46;101342.44;5111869;28;20086;-74
2023/09/16 05:03:02;;;;;;;1.83;1.48;;;;;;;21.75;48.19;101354.44;5110889;28;20023;-74
2023/09/16 05:05:27;;;;;;;;;;;;;;;21.87;48.42;101373.81;5114325;28;20031;-74
2023/09/16 05:07:52;;;;;;;1.98;1.75;;;;;;;21.75;48.47;101357.16;5113624;28;19963;-74
2023/09/16 05:10:18;;;;;;;1.60;1.30;;;;;;;21.59;48.39;101341.84;5109089;28;20164;-75
2023/09/16 05:12:43;;;;;;;2.00;1.50;;;;;;;21.78;48.40;101373.03;5088961;28;20038;-74
2023/09/16 05:15:10;;;;;;;2.60;1.50;;;;;;;21.69;48.59;101358.69;5114211;27;20049;-74
2023/09/16 05:17:36;;;;;;;2.25;1.85;;;;;;;21.76;48.58;101363.41;5109357;28;20020;-74
2023/09/16 05:20:03;;;;;;;2.25;1.60;;;;;;;21.59;48.36;101335.59;5107897;28;20468;-74
2023/09/16 05:22:28;;;;;;;2.08;1.55;;;;;;;21.77;48.39;101365.09;5108525;28;20023;-74
2023/09/16 05:24:53;;;;;;;1.80;1.58;;;;;;;21.81;48.31;101377.25;5110203;28;20028;-74
2023/09/16 05:27:19;;;;;;;1.92;1.55;;;;;;;21.75;48.68;101367.13;5108770;28;20059;-74
2023/09/16 05:29:44;;;;;;;2.05;1.73;;;;;;;21.56;48.35;101333.22;5106555;28;20027;-74
2023/09/16 05:32:09;;;;;;;2.22;1.60;;;;;;;21.57;48.29;101343.00;5111051;28;20042;-74
2023/09/16 05:34:35;;;;;;;2.45;1.58;;;;;;;21.79;48.38;101366.63;5108530;28;20035;-74
2023/09/16 05:37:00;;;;;;;2.20;1.70;;;;;;;21.79;48.28;101368.44;5109270;28;20032;-74
2023/09/16 05:39:25;;;;;;;1.65;1.42;;;;;;;21.58;48.62;101337.44;5110751;28;20111;-74
2023/09/16 05:41:50;;;;;;;2.10;1.48;;;;;;;21.72;48.24;101368.31;5110591;28;20086;-74
2023/09/16 05:44:20;;;;;;;1.90;1.42;;;;;;;21.44;48.40;101317.34;5110488;28;20032;-74
2023/09/16 05:46:45;;;;;;;1.55;1.30;;;;;;;21.76;48.36;101375.06;5114887;28;20016;-74
2023/09/16 05:49:11;;;;;;;1.98;1.60;;;;;;;21.67;48.53;101359.91;5109137;28;20067;-74
2023/09/16 05:51:36;;;;;;;2.30;1.70;;;;;;;21.75;48.43;101367.13;5111727;28;20036;-74
2023/09/16 05:54:02;;;;;;;2.97;1.70;;;;;;;21.70;48.36;101373.06;5112547;28;20028;-74
2023/09/16 05:56:27;;;;;;;2.95;1.88;;;;;;;21.74;48.35;101377.09;5118373;28;20035;-74
2023/09/16 05:58:53;;;;;;;1.85;1.58;;;;;;;21.62;48.51;101364.97;5110962;28;20483;-74
2023/09/16 06:01:18;;;;;;;1.77;1.48;;;;;;;21.46;48.28;101336.97;5113457;28;20027;-74
2023/09/16 06:03:44;;;;;;;1.58;1.30;;;;;;;21.62;48.38;101368.56;5104186;28;20035;-74
2023/09/16 06:06:09;;;;;;;2.00;1.70;;;;;;;21.37;48.49;101320.97;5114064;28;20030;-75
2023/09/16 06:08:34;;;;;;;2.05;1.50;;;;;;;21.71;48.21;101380.19;5113548;28;20481;-74
2023/09/16 06:10:59;;;;;;;2.38;1.75;;;;;;;21.70;48.36;101390.13;5108807;28;20034;-74
2023/09/16 06:13:25;;;;;;;3.90;1.80;;;;;;;21.70;48.36;101379.31;5118392;28;20024;-74
2023/09/16 06:15:51;;;;;;;1.80;1.48;;;;;;;21.70;48.42;101383.88;5114125;27;20042;-74
2023/09/16 06:18:16;;;;;;;2.90;1.83;;;;;;;21.64;48.27;101379.19;5095642;28;20032;-74
2023/09/16 06:20:42;;;;;;;2.28;1.55;;;;;;;21.67;48.07;101397.78;5116998;28;20023;-74
2023/09/16 06:23:07;;;;;;;1.70;1.60;;;;;;;21.43;48.47;101361.66;5110206;28;20028;-74
2023/09/16 06:25:33;;;;;;;1.80;1.50;;;;;;;21.58;48.54;101383.44;5111668;28;20028;-74
2023/09/16 06:27:59;;;;;;;2.50;1.80;;;;;;;21.62;48.19;101382.09;5114289;28;20035;-74
2023/09/16 06:30:25;;;;;;;2.75;2.17;;;;;;;21.45;48.55;101358.78;5109769;28;20028;-74
2023/09/16 06:32:52;;;;;;;2.33;1.50;;;;;;;21.46;48.60;101366.75;5112576;28;20105;-73
2023/09/16 06:35:18;;;;;;;1.77;1.58;;;;;;;21.60;48.42;101392.22;5119165;28;20024;-74
2023/09/16 06:37:43;;;;;;;1.73;1.38;;;;;;;21.44;48.48;101362.50;5111142;28;20031;-74
2023/09/16 06:40:09;;;;;;;1.80;1.60;;;;;;;21.67;48.50;101395.91;5114806;28;20800;-74
2023/09/16 06:42:34;;;;;;;2.20;1.60;;;;;;;21.66;48.55;101398.78;5104467;28;20047;-74
2023/09/16 06:44:59;;;;;;;1.42;1.33;;;;;;;21.67;48.35;101405.91;5107155;28;20024;-74
2023/09/16 06:47:26;;;;;;;1.98;1.60;;;;;;;21.53;48.53;101383.09;5116980;28;20027;-75
2023/09/16 06:49:52;;;;;;;2.10;1.70;;;;;;;21.65;48.36;101399.81;5115370;28;20032;-74
2023/09/16 06:52:17;;;;;;;2.50;1.50;;;;;;;21.51;48.63;101387.03;5104729;28;20031;-74
2023/09/16 06:54:42;;;;;;;3.33;1.77;;;;;;;21.41;48.33;101369.13;5119122;28;20030;-74
2023/09/16 06:57:08;;;;;;;2.67;1.70;;;;;;;21.39;48.32;101365.75;5112197;28;20031;-74
2023/09/16 06:59:33;;;;;;;2.10;1.88;;;;;;;21.57;48.37;101392.56;5109921;28;20038;-74
2023/09/16 07:01:58;;;;;;;2.63;1.73;;;;;;;21.39;48.64;101363.03;5117866;28;20027;-74
2023/09/16 07:04:27;;;;;;;2.10;1.73;;;;;;;21.64;48.63;101406.25;5110613;28;20032;-74
2023/09/16 07:06:52;;;;;;;2.20;1.80;;;;;;;21.45;48.53;101375.88;5111510;28;20023;-74
2023/09/16 07:09:17;;;;;;;1.60;1.40;;;;;;;21.49;48.38;101375.50;5115595;28;20047;-74
2023/09/16 07:11:43;;;;;;;2.10;1.60;;;;;;;21.65;48.64;101403.34;5109371;28;20039;-74
2023/09/16 07:14:09;;;;;;;2.47;1.45;;;;;;;21.37;48.82;101356.97;5115769;28;20024;-74
2023/09/16 07:16:40;;;;;;;2.20;1.50;;;;;;;21.65;48.84;101405.22;5115280;28;20495;-74
2023/09/16 07:19:05;;;;;;;2.38;1.85;;;;;;;21.62;48.91;101397.44;5107069;28;20012;-74
2023/09/16 07:21:31;;;;;;;2.55;1.60;;;;;;;21.46;48.78;101374.84;5108134;28;20027;-74
2023/09/16 07:24:00;;;;;;;2.60;1.80;;;;;;;21.49;48.75;101370.94;5108370;28;20561;-74
2023/09/16 07:26:29;;;;;;;2.38;1.90;;;;;;;21.65;48.86;101399.81;5098642;28;20020;-74
2023/09/16 07:28:54;;;;;;;1.50;1.40;;;;;;;21.65;48.90;101399.81;5109915;28;20032;-74
2023/09/16 07:31:19;;;;;;;2.58;1.77;;;;;;;21.64;48.68;101396.25;5104180;28;20035;-74
2023/09/16 07:33:48;;;;;;;2.15;1.77;;;;;;;21.52;49.08;101375.16;5111018;28;20034;-74
2023/09/16 07:36:13;;;;;;;1.55;1.45;;;;;;;21.45;49.05;101354.25;5109322;28;20028;-74
2023/09/16 07:38:38;;;;;;;2.45;1.80;;;;;;;21.43;48.73;101348.16;5115349;28;20023;-74
2023/09/16 07:41:03;;;;;;;3.58;1.92;;;;;;;21.65;49.07;101394.41;5108226;28;20054;-74
2023/09/16 07:43:29;;;;;;;1.73;1.50;;;;;;;21.43;49.04;101358.97;5112247;28;20028;-74
2023/09/16 07:45:54;;;;;;;2.10;1.77;;;;;;;21.55;49.11;101377.53;5119571;28;20024;-74
2023/09/16 07:48:19;;;;;;;2.15;1.75;;;;;;;21.36;48.90;101347.16;5107370;28;20053;-74
2023/09/16 07:50:45;;;;;;;2.03;1.77;;;;;;;21.55;49.02;101382.94;5108131;28;20031;-74
2023/09/16 07:53:11;;;;;;;2.83;1.90;;;;;;;21.44;49.30;101367.91;5115677;28;20079;-74
2023/09/16 07:55:38;;;;;;;2.33;1.73;;;;;;;21.34;49.17;101349.19;5109992;28;20023;-74
2023/09/16 07:58:04;;;;;;;1.95;1.58;;;;;;;21.66;49.15;101399.66;5108302;28;20020;-75
2023/09/16 08:00:29;;;;;;;2.05;1.77;;;;;;;21.60;49.31;101391.38;5106547;28;20060;-74
2023/09/16 08:02:54;;;;;;;1.95;1.52;;;;;;;21.57;49.04;101387.16;5110514;28;20108;-74
2023/09/16 08:05:19;;;;;;;2.08;1.60;;;;;;;21.58;49.45;101388.84;5110263;28;20028;-74
2023/09/16 08:07:45;;;;;;;2.58;1.70;;;;;;;21.57;49.26;101389.00;5119732;28;20095;-74
2023/09/16 08:10:11;;;;;;;3.17;2.00;;;;;;;21.68;49.38;101413.84;5114227;28;20032;-74
2023/09/16 08:12:36;;;;;;;2.20;2.00;;;;;;;21.46;49.43;101374.84;5113292;28;20024;-74
2023/09/16 08:15:03;;;;;;;2.17;1.50;;;;;;;21.69;49.51;101410.09;5116098;27;20028;-74
2023/09/16 08:17:28;;;;;;;2.17;1.80;;;;;;;21.37;49.46;101365.09;5117765;28;20024;-74
2023/09/16 08:19:53;;;;;;;2.22;1.80;;;;;;;21.35;49.41;101356.28;5113311;28;20050;-74
2023/09/16 08:22:18;;;;;;;1.80;1.70;;;;;;;21.58;49.48;101396.09;5112272;28;20032;-74
2023/09/16 08:24:44;;;;;;;2.00;1.70;;;;;;;21.59;49.29;101404.06;5116926;27;20020;-74
2023/09/16 08:27:09;;;;;;;2.15;1.75;;;;;;;21.70;49.41;101421.78;5119605;28;20032;-74
2023/09/16 08:29:34;;;;;;;2.30;1.80;;;;;;;21.55;49.36;101393.78;5112887;28;20027;-74
2023/09/16 08:32:00;;;;;;;2.55;1.77;;;;;;;21.67;49.52;101412.16;5117572;28;20099;-74
2023/09/16 08:34:25;;;;;;;2.63;2.03;;;;;;;21.41;49.58;101374.53;5110893;28;20085;-75
2023/09/16 08:36:50;;;;;;;2.30;1.80;;;;;;;21.74;49.75;101416.84;5097738;28;20016;-74
2023/09/16 08:39:15;;;;;;;2.00;1.63;;;;;;;21.53;49.73;101387.66;5122188;28;20034;-74
2023/09/16 08:42:03;;;;;;;1.92;1.73;;;;;;;21.71;49.58;101420.78;5115467;28;20024;-74
2023/09/16 08:44:29;;;;;;;1.90;1.50;;;;;;;21.70;49.60;101413.66;5117063;28;20039;-74
2023/09/16 08:47:04;;;;;;;2.33;1.58;;;;;;;21.77;49.96;101430.06;5110621;28;20119;-74
2023/09/16 08:49:30;;;;;;;2.05;1.73;;;;;;;21.58;49.67;101396.09;5111984;28;20021;-74
2023/09/16 08:51:59;;;;;;;1.98;1.40;;;;;;;21.79;50.06;101426.16;5118036;28;20103;-74
2023/09/16 08:54:24;;;;;;;;;;;;;;;21.82;49.92;101422.25;5121196;28;20488;-74
2023/09/16 08:56:49;;;;;;;2.13;1.88;;;;;;;21.79;50.04;101418.03;5122099;28;19911;-74
2023/09/16 08:59:15;;;;;;;3.05;1.80;;;;;;;21.83;49.70;101426.63;5117499;28;20020;-74
2023/09/16 09:01:42;;;;;;;2.08;1.65;;;;;;;21.71;49.84;101408.09;5112874;28;20084;-74
2023/09/16 09:04:09;;;;;;;2.00;1.52;;;;;;;21.79;50.18;101411.75;5115210;28;20464;-74
2023/09/16 09:06:35;;;;;;;2.05;1.60;;;;;;;21.57;50.05;101373.63;5116046;28;20020;-74
2023/09/16 09:09:00;;;;;;;1.60;1.27;;;;;;;21.51;50.08;101381.59;5121532;28;20040;-74
2023/09/16 09:11:30;;;;;;;1.73;1.48;;;;;;;21.89;49.83;101425.94;5117618;28;20043;-74
2023/09/16 09:13:56;;;;;;;2.28;1.52;;;;;;;21.90;49.85;101431.16;5117201;28;20060;-74
2023/09/16 09:16:22;;;;;;;1.88;1.60;;;;;;;21.91;50.01;101429.31;5110440;28;20028;-74
2023/09/16 09:18:48;;;;;;;2.03;1.58;;;;;;;21.91;50.13;101426.59;5124120;28;20028;-74
2023/09/16 09:21:15;;;;;;;2.22;1.50;;;;;;;21.82;49.90;101409.53;5112553;28;20179;-74
2023/09/16 09:23:41;;;;;;;1.83;1.30;;;;;;;21.85;49.99;101421.91;5093224;28;20028;-74
2023/09/16 09:26:06;;;;;;;1.70;1.48;;;;;;;21.92;50.14;101426.44;5117033;28;20042;-74
2023/09/16 09:28:32;;;;;;;1.52;1.30;;;;;;;21.92;50.14;101426.44;5111506;28;20035;-74
2023/09/16 09:30:58;;;;;;;1.83;1.40;;;;;;;21.64;50.06;101380.03;5109335;28;20028;-74
2023/09/16 09:33:26;;;;;;;1.92;1.58;;;;;;;21.70;50.14;101382.00;5108785;28;20077;-74
2023/09/16 09:36:08;;;;;;;2.38;1.75;;;;;;;21.77;50.03;101393.00;5104714;28;20047;-74
2023/09/16 09:38:38;;;;;;;1.98;1.30;;;;;;;21.94;50.10;101423.56;5121259;28;20032;-74
2023/09/16 09:41:03;;;;;;;1.80;1.40;;;;;;;21.68;50.11;101384.06;5113723;28;20049;-74
2023/09/16 09:43:30;;;;;;;1.40;1.30;;;;;;;21.75;50.18;101392.34;5106061;28;20376;-74
2023/09/16 09:45:55;;;;;;;1.77;1.33;;;;;;;21.64;50.36;101371.06;5109920;28;20032;-74
2023/09/16 09:48:20;;;;;;;2.00;1.60;;;;;;;21.89;50.11;101415.97;5089907;28;20035;-74
2023/09/16 09:50:45;;;;;;;1.90;1.48;;;;;;;21.67;50.31;101373.44;5120448;28;20131;-74
2023/09/16 09:53:11;;;;;;;2.03;1.50;;;;;;;21.90;50.04;101417.63;5107867;28;20028;-74
2023/09/16 09:55:37;;;;;;;1.80;1.30;;;;;;;21.98;50.37;101424.03;5121924;28;20027;-74
2023/09/16 09:58:02;;;;;;;1.92;1.10;;;;;;;21.81;50.10;101398.91;5121644;28;20478;-74
2023/09/16 10:00:28;;;;;;;1.52;1.20;;;;;;;21.78;50.14;101391.97;5109995;28;20055;-74
2023/09/16 10:02:54;;;;;;;1.48;1.38;;;;;;;22.01;50.09;101423.69;5119013;28;20032;-74
2023/09/16 10:05:21;;;;;;;1.60;1.50;;;;;;;22.01;50.27;101421.00;5109722;28;20077;-74
2023/09/16 10:07:47;;;;;;;1.90;1.60;;;;;;;21.95;50.61;101414.41;5115643;28;20028;-74
2023/09/16 10:10:23;;;;;;;2.13;1.33;;;;;;;21.94;50.49;101416.25;5108855;28;20036;-74
2023/09/16 10:12:56;;;;;;;2.08;1.65;;;;;;;21.81;50.28;101388.06;5114187;28;20028;-74
2023/09/16 10:15:25;;;;;;;2.83;1.10;;;;;;;;;;5112875;27;20027;-74
2023/09/16 10:17:51;;;;;;;1.88;1.55;;;;;;;21.84;50.50;101390.44;5119778;28;20087;-74
2023/09/16 10:20:16;;;;;;;2.22;1.50;;;;;;;22.05;50.42;101428.59;5096815;28;20028;-74
2023/09/16 10:22:43;;;;;;;1.63;1.40;;;;;;;21.77;50.31;101384.88;5111183;28;20035;-74
2023/09/16 10:25:09;;;;;;;1.88;1.60;;;;;;;22.02;50.66;101422.66;5106285;28;20690;-75
2023/09/16 10:27:40;;;;;;;1.67;1.40;;;;;;;21.87;50.47;101393.63;5114180;28;20083;-74
2023/09/16 10:30:06;;;;;;;2.22;1.55;;;;;;;22.08;50.85;101427.38;5110890;28;20032;-74
2023/09/16 10:32:32;;;;;;;2.08;1.40;;;;;;;21.50;50.59;101337.47;5108556;28;20031;-74
2023/09/16 10:35:02;;;;;;;1.75;1.50;;;;;;;21.84;50.62;101383.16;5095962;28;20024;-74
2023/09/16 10:37:29;;;;;;;1.70;1.42;;;;;;;21.90;50.61;101387.84;5110155;28;20037;-74
2023/09/16 10:39:55;;;;;;;1.40;1.30;;;;;;;22.07;50.64;101417.56;5110019;28;20027;-74
2023/09/16 10:42:21;;;;;;;2.50;1.42;;;;;;;22.07;50.90;101413.00;5105127;28;20020;-74
2023/09/16 10:44:47;;;;;;;2.03;1.60;;;;;;;22.13;50.90;101422.28;5108945;28;20031;-74
2023/09/16 10:47:15;;;;;;;1.50;1.40;;;;;;;22.00;50.99;101400.31;5112308;28;20054;-74
2023/09/16 10:49:40;;;;;;;1.42;1.30;;;;;;;21.98;50.89;101391.56;5118221;28;20031;-74
2023/09/16 10:52:10;;;;;;;1.92;1.52;;;;;;;22.08;51.01;101409.25;5119090;28;20042;-74
2023/09/16 10:54:44;;;;;;;1.50;1.30;;;;;;;22.14;51.02;101419.41;5115188;28;20043;-74
2023/09/16 10:57:17;;;;;;;1.40;1.25;;;;;;;21.95;51.03;101384.63;5110971;28;20032;-74
2023/09/16 10:59:44;;;;;;;3.60;1.92;;;;;;;22.16;50.93;101420.06;5112104;28;20019;-75
2023/09/16 11:02:21;;;;;;;1.73;1.40;;;;;;;21.78;51.12;101351.38;5120068;28;20028;-74
2023/09/16 11:04:47;;;;;;;1.50;1.40;;;;;;;22.05;51.02;101403.38;5110986;28;20492;-74
2023/09/16 11:07:12;;;;;;;1.90;1.45;;;;;;;22.18;51.29;101418.03;5110042;28;20024;-75
2023/09/16 11:09:38;;;;;;;1.50;1.38;;;;;;;22.18;51.12;101418.03;5115677;28;20043;-74
2023/09/16 11:12:04;;;;;;;1.55;1.15;;;;;;;22.19;51.28;101418.88;5107934;28;20035;-74
2023/09/16 11:14:29;;;;;;;2.20;1.70;;;;;;;22.19;51.23;101419.72;5114701;28;20023;-74
2023/09/16 11:16:55;;;;;;;1.98;1.67;;;;;;;22.06;51.44;101394.22;5103127;28;20028;-74
2023/09/16 11:19:22;;;;;;;1.80;1.42;;;;;;;22.09;51.36;101396.56;5108295;28;20012;-75
2023/09/16 11:21:47;;;;;;;1.58;1.33;;;;;;;22.06;51.42;101397.75;5114301;28;20058;-74